sensor_id;sensor_type;location;lat;lon;timestamp;temperature;humidity
70807;DHT22;58882;52.170;5.386;2023-08-30T00:01:27;22.60;48.70
70807;DHT22;58882;52.170;5.386;2023-08-30T00:03:54;22.70;47.70
70807;DHT22;58882;52.170;5.386;2023-08-30T00:06:21;22.60;47.60
70807;DHT22;58882;52.170;5.386;2023-08-30T00:08:48;22.70;47.60
70807;DHT22;58882;52.170;5.386;2023-08-30T00:11:15;22.60;47.50
70807;DHT22;58882;52.170;5.386;2023-08-30T00:13:42;22.60;47.50
70807;DHT22;58882;52.170;5.386;2023-08-30T00:16:09;22.60;47.50
70807;DHT22;58882;52.170;5.386;2023-08-30T00:18:36;22.60;47.40
70807;DHT22;58882;52.170;5.386;2023-08-30T00:21:03;22.60;47.50
70807;DHT22;58882;52.170;5.386;2023-08-30T00:23:29;22.60;47.40
70807;DHT22;58882;52.170;5.386;2023-08-30T00:25:56;22.60;47.50
70807;DHT22;58882;52.170;5.386;2023-08-30T00:28:23;22.60;47.50
70807;DHT22;58882;52.170;5.386;2023-08-30T00:30:54;22.60;47.50
70807;DHT22;58882;52.170;5.386;2023-08-30T00:33:21;22.50;47.40
70807;DHT22;58882;52.170;5.386;2023-08-30T00:35:58;22.60;47.40
70807;DHT22;58882;52.170;5.386;2023-08-30T00:38:26;22.50;47.40
70807;DHT22;58882;52.170;5.386;2023-08-30T00:40:54;22.50;47.40
70807;DHT22;58882;52.170;5.386;2023-08-30T00:43:21;22.50;47.50
70807;DHT22;58882;52.170;5.386;2023-08-30T00:45:48;22.50;47.50
70807;DHT22;58882;52.170;5.386;2023-08-30T00:48:17;22.50;47.40
70807;DHT22;58882;52.170;5.386;2023-08-30T00:50:46;22.50;47.50
70807;DHT22;58882;52.170;5.386;2023-08-30T00:53:13;22.50;47.50
70807;DHT22;58882;52.170;5.386;2023-08-30T00:55:42;22.50;47.50
70807;DHT22;58882;52.170;5.386;2023-08-30T00:58:10;22.50;47.50
70807;DHT22;58882;52.170;5.386;2023-08-30T01:00:38;22.50;47.50
70807;DHT22;58882;52.170;5.386;2023-08-30T01:03:06;22.50;47.50
70807;DHT22;58882;52.170;5.386;2023-08-30T01:05:34;22.40;47.40
70807;DHT22;58882;52.170;5.386;2023-08-30T01:08:01;22.50;47.50
70807;DHT22;58882;52.170;5.386;2023-08-30T01:10:42;22.40;47.40
70807;DHT22;58882;52.170;5.386;2023-08-30T01:13:15;22.40;47.40
70807;DHT22;58882;52.170;5.386;2023-08-30T01:15:47;22.40;48.30
70807;DHT22;58882;52.170;5.386;2023-08-30T01:18:19;22.40;47.30
70807;DHT22;58882;52.170;5.386;2023-08-30T01:20:47;22.40;47.40
70807;DHT22;58882;52.170;5.386;2023-08-30T01:26:13;22.40;47.40
70807;DHT22;58882;52.170;5.386;2023-08-30T01:28:41;22.40;47.40
70807;DHT22;58882;52.170;5.386;2023-08-30T01:31:09;22.40;47.30
70807;DHT22;58882;52.170;5.386;2023-08-30T01:33:37;22.40;47.40
70807;DHT22;58882;52.170;5.386;2023-08-30T01:36:04;22.40;47.40
70807;DHT22;58882;52.170;5.386;2023-08-30T01:38:33;22.40;47.40
70807;DHT22;58882;52.170;5.386;2023-08-30T01:41:02;22.30;47.50
70807;DHT22;58882;52.170;5.386;2023-08-30T01:43:30;22.30;47.40
70807;DHT22;58882;52.170;5.386;2023-08-30T01:45:59;22.30;48.40
70807;DHT22;58882;52.170;5.386;2023-08-30T01:48:29;22.30;47.40
70807;DHT22;58882;52.170;5.386;2023-08-30T01:50:56;22.30;47.40
70807;DHT22;58882;52.170;5.386;2023-08-30T01:53:26;22.30;47.40
70807;DHT22;58882;52.170;5.386;2023-08-30T01:55:54;22.30;47.40
70807;DHT22;58882;52.170;5.386;2023-08-30T01:58:21;22.30;47.40
70807;DHT22;58882;52.170;5.386;2023-08-30T02:00:48;22.30;47.40
70807;DHT22;58882;52.170;5.386;2023-08-30T02:03:15;22.30;47.40
70807;DHT22;58882;52.170;5.386;2023-08-30T02:06:08;22.30;47.40
70807;DHT22;58882;52.170;5.386;2023-08-30T02:08:41;22.30;48.40
70807;DHT22;58882;52.170;5.386;2023-08-30T02:11:19;22.30;48.40
70807;DHT22;58882;52.170;5.386;2023-08-30T02:13:50;22.30;47.40
70807;DHT22;58882;52.170;5.386;2023-08-30T02:16:18;22.30;47.40
70807;DHT22;58882;52.170;5.386;2023-08-30T02:18:45;22.30;47.40
70807;DHT22;58882;52.170;5.386;2023-08-30T02:21:13;22.30;47.40
70807;DHT22;58882;52.170;5.386;2023-08-30T02:23:40;22.30;47.50
70807;DHT22;58882;52.170;5.386;2023-08-30T02:26:07;22.30;47.50
70807;DHT22;58882;52.170;5.386;2023-08-30T02:28:33;22.30;47.50
70807;DHT22;58882;52.170;5.386;2023-08-30T02:31:00;22.30;47.50
70807;DHT22;58882;52.170;5.386;2023-08-30T02:33:27;22.30;47.50
70807;DHT22;58882;52.170;5.386;2023-08-30T02:35:54;22.30;48.50
70807;DHT22;58882;52.170;5.386;2023-08-30T02:38:23;22.30;47.40
70807;DHT22;58882;52.170;5.386;2023-08-30T02:40:50;22.20;47.30
70807;DHT22;58882;52.170;5.386;2023-08-30T02:43:17;22.30;47.40
70807;DHT22;58882;52.170;5.386;2023-08-30T02:45:43;22.30;47.40
70807;DHT22;58882;52.170;5.386;2023-08-30T02:48:11;22.30;47.30
70807;DHT22;58882;52.170;5.386;2023-08-30T02:50:38;22.30;47.30
70807;DHT22;58882;52.170;5.386;2023-08-30T02:53:05;22.20;47.20
70807;DHT22;58882;52.170;5.386;2023-08-30T02:55:35;22.30;47.30
70807;DHT22;58882;52.170;5.386;2023-08-30T02:58:02;22.20;47.20
70807;DHT22;58882;52.170;5.386;2023-08-30T03:00:29;22.20;47.10
70807;DHT22;58882;52.170;5.386;2023-08-30T03:02:57;22.20;47.10
70807;DHT22;58882;52.170;5.386;2023-08-30T03:05:24;22.20;47.00
70807;DHT22;58882;52.170;5.386;2023-08-30T03:07:52;22.20;47.00
70807;DHT22;58882;52.170;5.386;2023-08-30T03:10:20;22.20;48.00
70807;DHT22;58882;52.170;5.386;2023-08-30T03:12:47;22.20;47.10
70807;DHT22;58882;52.170;5.386;2023-08-30T03:15:14;22.20;47.00
70807;DHT22;58882;52.170;5.386;2023-08-30T03:17:40;22.20;47.00
70807;DHT22;58882;52.170;5.386;2023-08-30T03:20:07;22.20;47.00
70807;DHT22;58882;52.170;5.386;2023-08-30T03:22:34;22.20;47.00
70807;DHT22;58882;52.170;5.386;2023-08-30T03:25:01;22.20;47.10
70807;DHT22;58882;52.170;5.386;2023-08-30T03:27:30;22.20;46.90
70807;DHT22;58882;52.170;5.386;2023-08-30T03:29:57;22.20;46.70
70807;DHT22;58882;52.170;5.386;2023-08-30T03:32:24;22.20;46.80
70807;DHT22;58882;52.170;5.386;2023-08-30T03:34:50;22.10;46.70
70807;DHT22;58882;52.170;5.386;2023-08-30T03:37:17;22.10;47.00
70807;DHT22;58882;52.170;5.386;2023-08-30T03:39:44;22.10;47.20
70807;DHT22;58882;52.170;5.386;2023-08-30T03:42:11;22.10;47.40
70807;DHT22;58882;52.170;5.386;2023-08-30T03:44:38;22.10;47.40
70807;DHT22;58882;52.170;5.386;2023-08-30T03:47:08;22.10;47.40
70807;DHT22;58882;52.170;5.386;2023-08-30T03:49:36;22.10;47.30
70807;DHT22;58882;52.170;5.386;2023-08-30T03:52:03;22.10;47.30
70807;DHT22;58882;52.170;5.386;2023-08-30T03:54:31;22.10;47.20
70807;DHT22;58882;52.170;5.386;2023-08-30T03:56:58;22.10;47.10
70807;DHT22;58882;52.170;5.386;2023-08-30T03:59:25;22.10;47.10
70807;DHT22;58882;52.170;5.386;2023-08-30T04:01:54;22.10;47.00
70807;DHT22;58882;52.170;5.386;2023-08-30T04:04:21;22.10;47.00
70807;DHT22;58882;52.170;5.386;2023-08-30T04:06:48;22.10;47.00
70807;DHT22;58882;52.170;5.386;2023-08-30T04:09:15;22.10;46.90
70807;DHT22;58882;52.170;5.386;2023-08-30T04:11:43;22.10;47.00
70807;DHT22;58882;52.170;5.386;2023-08-30T04:14:10;22.10;47.00
70807;DHT22;58882;52.170;5.386;2023-08-30T04:16:37;22.10;46.90
70807;DHT22;58882;52.170;5.386;2023-08-30T04:19:06;22.10;46.90
70807;DHT22;58882;52.170;5.386;2023-08-30T04:21:33;22.10;46.90
70807;DHT22;58882;52.170;5.386;2023-08-30T04:24:00;22.10;46.90
70807;DHT22;58882;52.170;5.386;2023-08-30T04:26:27;22.10;46.90
70807;DHT22;58882;52.170;5.386;2023-08-30T04:28:55;22.00;46.80
70807;DHT22;58882;52.170;5.386;2023-08-30T04:31:22;22.00;46.70
70807;DHT22;58882;52.170;5.386;2023-08-30T04:33:49;22.00;46.70
70807;DHT22;58882;52.170;5.386;2023-08-30T04:36:16;22.00;46.80
70807;DHT22;58882;52.170;5.386;2023-08-30T04:38:43;22.10;46.80
70807;DHT22;58882;52.170;5.386;2023-08-30T04:41:27;22.00;46.70
70807;DHT22;58882;52.170;5.386;2023-08-30T04:43:54;22.00;46.70
70807;DHT22;58882;52.170;5.386;2023-08-30T04:46:21;22.00;46.70
70807;DHT22;58882;52.170;5.386;2023-08-30T04:48:48;22.00;46.60
70807;DHT22;58882;52.170;5.386;2023-08-30T04:51:15;22.00;46.70
70807;DHT22;58882;52.170;5.386;2023-08-30T04:53:42;22.00;46.60
70807;DHT22;58882;52.170;5.386;2023-08-30T04:56:11;22.00;46.70
70807;DHT22;58882;52.170;5.386;2023-08-30T04:58:38;22.00;46.80
70807;DHT22;58882;52.170;5.386;2023-08-30T05:01:08;22.00;46.70
70807;DHT22;58882;52.170;5.386;2023-08-30T05:03:37;22.00;46.50
70807;DHT22;58882;52.170;5.386;2023-08-30T05:06:07;22.00;46.60
70807;DHT22;58882;52.170;5.386;2023-08-30T05:08:34;21.90;46.60
70807;DHT22;58882;52.170;5.386;2023-08-30T05:11:00;21.90;46.70
70807;DHT22;58882;52.170;5.386;2023-08-30T05:13:30;21.90;46.70
70807;DHT22;58882;52.170;5.386;2023-08-30T05:15:58;21.90;46.60
70807;DHT22;58882;52.170;5.386;2023-08-30T05:18:25;21.90;46.30
70807;DHT22;58882;52.170;5.386;2023-08-30T05:20:52;21.90;46.50
70807;DHT22;58882;52.170;5.386;2023-08-30T05:23:19;21.90;46.40
70807;DHT22;58882;52.170;5.386;2023-08-30T05:25:46;21.90;46.70
70807;DHT22;58882;52.170;5.386;2023-08-30T05:28:15;21.80;46.30
70807;DHT22;58882;52.170;5.386;2023-08-30T05:30:42;21.80;46.50
70807;DHT22;58882;52.170;5.386;2023-08-30T05:33:24;21.80;46.50
70807;DHT22;58882;52.170;5.386;2023-08-30T05:36:17;21.70;46.50
70807;DHT22;58882;52.170;5.386;2023-08-30T05:39:00;21.70;47.00
70807;DHT22;58882;52.170;5.386;2023-08-30T05:41:42;21.70;47.10
70807;DHT22;58882;52.170;5.386;2023-08-30T05:44:08;21.70;47.50
70807;DHT22;58882;52.170;5.386;2023-08-30T05:46:36;21.70;48.60
70807;DHT22;58882;52.170;5.386;2023-08-30T05:49:03;21.70;47.50
70807;DHT22;58882;52.170;5.386;2023-08-30T05:51:30;21.80;47.60
70807;DHT22;58882;52.170;5.386;2023-08-30T05:53:56;21.80;47.50
70807;DHT22;58882;52.170;5.386;2023-08-30T05:56:23;21.80;47.40
70807;DHT22;58882;52.170;5.386;2023-08-30T05:58:50;21.80;47.30
70807;DHT22;58882;52.170;5.386;2023-08-30T06:01:18;21.80;47.20
70807;DHT22;58882;52.170;5.386;2023-08-30T06:03:46;21.80;47.20
70807;DHT22;58882;52.170;5.386;2023-08-30T06:06:13;21.90;47.40
70807;DHT22;58882;52.170;5.386;2023-08-30T06:08:40;21.90;47.20
70807;DHT22;58882;52.170;5.386;2023-08-30T06:11:08;21.90;47.20
70807;DHT22;58882;52.170;5.386;2023-08-30T06:13:35;21.90;47.10
70807;DHT22;58882;52.170;5.386;2023-08-30T06:16:01;21.90;47.00
70807;DHT22;58882;52.170;5.386;2023-08-30T06:18:30;22.00;47.00
70807;DHT22;58882;52.170;5.386;2023-08-30T06:20:58;22.00;46.10
70807;DHT22;58882;52.170;5.386;2023-08-30T06:23:25;21.90;46.00
70807;DHT22;58882;52.170;5.386;2023-08-30T06:25:56;21.70;46.00
70807;DHT22;58882;52.170;5.386;2023-08-30T06:28:23;21.40;46.40
70807;DHT22;58882;52.170;5.386;2023-08-30T06:30:50;21.20;47.00
70807;DHT22;58882;52.170;5.386;2023-08-30T06:33:17;21.00;47.80
70807;DHT22;58882;52.170;5.386;2023-08-30T06:35:47;21.00;48.30
70807;DHT22;58882;52.170;5.386;2023-08-30T06:38:14;21.00;48.40
70807;DHT22;58882;52.170;5.386;2023-08-30T06:40:45;21.00;48.40
70807;DHT22;58882;52.170;5.386;2023-08-30T06:43:12;21.10;48.40
70807;DHT22;58882;52.170;5.386;2023-08-30T06:45:39;21.20;48.30
70807;DHT22;58882;52.170;5.386;2023-08-30T06:48:06;21.20;48.20
70807;DHT22;58882;52.170;5.386;2023-08-30T06:50:37;21.30;48.20
70807;DHT22;58882;52.170;5.386;2023-08-30T06:53:03;21.40;48.10
70807;DHT22;58882;52.170;5.386;2023-08-30T06:55:30;21.40;48.10
70807;DHT22;58882;52.170;5.386;2023-08-30T06:57:59;21.40;48.00
70807;DHT22;58882;52.170;5.386;2023-08-30T07:00:26;21.50;48.00
70807;DHT22;58882;52.170;5.386;2023-08-30T07:02:53;21.50;48.00
70807;DHT22;58882;52.170;5.386;2023-08-30T07:05:20;21.50;47.90
70807;DHT22;58882;52.170;5.386;2023-08-30T07:07:46;21.60;48.00
70807;DHT22;58882;52.170;5.386;2023-08-30T07:10:13;21.60;48.00
70807;DHT22;58882;52.170;5.386;2023-08-30T07:12:40;21.60;48.00
70807;DHT22;58882;52.170;5.386;2023-08-30T07:15:08;21.60;48.00
70807;DHT22;58882;52.170;5.386;2023-08-30T07:17:35;21.70;48.00
70807;DHT22;58882;52.170;5.386;2023-08-30T07:20:18;21.70;48.10
70807;DHT22;58882;52.170;5.386;2023-08-30T07:22:46;21.70;48.00
70807;DHT22;58882;52.170;5.386;2023-08-30T07:25:13;21.70;48.00
70807;DHT22;58882;52.170;5.386;2023-08-30T07:27:41;21.70;48.10
70807;DHT22;58882;52.170;5.386;2023-08-30T07:30:08;21.80;49.20
70807;DHT22;58882;52.170;5.386;2023-08-30T07:32:35;21.80;48.10
70807;DHT22;58882;52.170;5.386;2023-08-30T07:35:03;21.80;48.10
70807;DHT22;58882;52.170;5.386;2023-08-30T07:37:30;21.80;48.10
70807;DHT22;58882;52.170;5.386;2023-08-30T07:39:57;21.80;48.20
70807;DHT22;58882;52.170;5.386;2023-08-30T07:42:24;21.80;48.20
70807;DHT22;58882;52.170;5.386;2023-08-30T07:44:51;21.80;48.30
70807;DHT22;58882;52.170;5.386;2023-08-30T07:47:18;21.80;48.40
70807;DHT22;58882;52.170;5.386;2023-08-30T07:49:45;21.80;48.50
70807;DHT22;58882;52.170;5.386;2023-08-30T07:52:12;21.80;48.60
70807;DHT22;58882;52.170;5.386;2023-08-30T07:54:40;21.80;48.70
70807;DHT22;58882;52.170;5.386;2023-08-30T07:57:07;21.80;48.80
70807;DHT22;58882;52.170;5.386;2023-08-30T07:59:36;21.80;48.90
70807;DHT22;58882;52.170;5.386;2023-08-30T08:02:03;21.70;49.30
70807;DHT22;58882;52.170;5.386;2023-08-30T08:04:34;21.70;49.20
70807;DHT22;58882;52.170;5.386;2023-08-30T08:07:02;21.70;49.30
70807;DHT22;58882;52.170;5.386;2023-08-30T08:09:30;21.70;49.50
70807;DHT22;58882;52.170;5.386;2023-08-30T08:11:58;21.60;49.60
70807;DHT22;58882;52.170;5.386;2023-08-30T08:14:25;21.60;49.80
70807;DHT22;58882;52.170;5.386;2023-08-30T08:16:52;21.60;49.80
70807;DHT22;58882;52.170;5.386;2023-08-30T08:19:19;21.60;50.00
70807;DHT22;58882;52.170;5.386;2023-08-30T08:21:51;21.60;50.10
70807;DHT22;58882;52.170;5.386;2023-08-30T08:24:20;21.60;50.10
70807;DHT22;58882;52.170;5.386;2023-08-30T08:26:47;21.70;50.10
70807;DHT22;58882;52.170;5.386;2023-08-30T08:29:14;21.70;50.00
70807;DHT22;58882;52.170;5.386;2023-08-30T08:31:41;21.70;50.10
70807;DHT22;58882;52.170;5.386;2023-08-30T08:34:10;21.70;50.10
70807;DHT22;58882;52.170;5.386;2023-08-30T08:36:42;21.70;50.30
70807;DHT22;58882;52.170;5.386;2023-08-30T08:39:09;21.60;51.50
70807;DHT22;58882;52.170;5.386;2023-08-30T08:41:41;21.60;50.50
70807;DHT22;58882;52.170;5.386;2023-08-30T08:44:10;21.60;50.50
70807;DHT22;58882;52.170;5.386;2023-08-30T08:46:38;21.70;50.50
70807;DHT22;58882;52.170;5.386;2023-08-30T08:49:11;21.70;50.50
70807;DHT22;58882;52.170;5.386;2023-08-30T08:51:41;21.70;50.50
70807;DHT22;58882;52.170;5.386;2023-08-30T08:54:10;21.80;50.40
70807;DHT22;58882;52.170;5.386;2023-08-30T08:56:38;21.80;50.40
70807;DHT22;58882;52.170;5.386;2023-08-30T08:59:05;21.80;50.40
70807;DHT22;58882;52.170;5.386;2023-08-30T09:01:35;21.80;51.50
70807;DHT22;58882;52.170;5.386;2023-08-30T09:04:06;21.80;50.60
70807;DHT22;58882;52.170;5.386;2023-08-30T09:06:34;21.80;50.40
70807;DHT22;58882;52.170;5.386;2023-08-30T09:09:03;21.80;50.50
70807;DHT22;58882;52.170;5.386;2023-08-30T09:11:31;21.80;50.50
70807;DHT22;58882;52.170;5.386;2023-08-30T09:14:16;21.90;50.60
70807;DHT22;58882;52.170;5.386;2023-08-30T09:16:54;21.90;50.60
70807;DHT22;58882;52.170;5.386;2023-08-30T09:19:21;21.90;50.60
70807;DHT22;58882;52.170;5.386;2023-08-30T09:21:56;21.90;50.50
70807;DHT22;58882;52.170;5.386;2023-08-30T09:24:23;21.90;50.50
70807;DHT22;58882;52.170;5.386;2023-08-30T09:26:52;21.90;50.50
70807;DHT22;58882;52.170;5.386;2023-08-30T09:29:20;22.00;50.50
70807;DHT22;58882;52.170;5.386;2023-08-30T09:31:51;22.00;50.40
70807;DHT22;58882;52.170;5.386;2023-08-30T09:34:26;22.00;50.40
70807;DHT22;58882;52.170;5.386;2023-08-30T09:36:54;22.00;50.40
70807;DHT22;58882;52.170;5.386;2023-08-30T09:39:22;22.00;50.30
70807;DHT22;58882;52.170;5.386;2023-08-30T09:41:49;22.10;50.30
70807;DHT22;58882;52.170;5.386;2023-08-30T09:44:21;22.10;50.30
70807;DHT22;58882;52.170;5.386;2023-08-30T09:46:53;22.10;50.30
70807;DHT22;58882;52.170;5.386;2023-08-30T09:49:25;22.20;50.30
70807;DHT22;58882;52.170;5.386;2023-08-30T09:51:53;22.20;50.20
70807;DHT22;58882;52.170;5.386;2023-08-30T09:54:22;22.20;50.30
70807;DHT22;58882;52.170;5.386;2023-08-30T09:57:06;22.20;50.20
70807;DHT22;58882;52.170;5.386;2023-08-30T09:59:33;22.30;50.20
70807;DHT22;58882;52.170;5.386;2023-08-30T10:02:00;22.30;50.30
70807;DHT22;58882;52.170;5.386;2023-08-30T10:04:28;22.30;50.30
70807;DHT22;58882;52.170;5.386;2023-08-30T10:06:56;22.30;50.30
70807;DHT22;58882;52.170;5.386;2023-08-30T10:09:27;22.30;50.30
70807;DHT22;58882;52.170;5.386;2023-08-30T10:11:57;22.30;50.30
70807;DHT22;58882;52.170;5.386;2023-08-30T10:14:24;22.30;50.50
70807;DHT22;58882;52.170;5.386;2023-08-30T10:16:51;22.30;50.30
70807;DHT22;58882;52.170;5.386;2023-08-30T10:19:24;22.40;50.40
70807;DHT22;58882;52.170;5.386;2023-08-30T10:22:00;22.40;50.40
70807;DHT22;58882;52.170;5.386;2023-08-30T10:24:46;22.40;50.50
70807;DHT22;58882;52.170;5.386;2023-08-30T10:27:34;22.40;50.40
70807;DHT22;58882;52.170;5.386;2023-08-30T10:30:05;22.50;50.60
70807;DHT22;58882;52.170;5.386;2023-08-30T10:32:39;22.50;50.60
70807;DHT22;58882;52.170;5.386;2023-08-30T10:35:06;22.80;50.70
70807;DHT22;58882;52.170;5.386;2023-08-30T10:37:33;23.10;50.10
70807;DHT22;58882;52.170;5.386;2023-08-30T10:40:03;23.40;49.60
70807;DHT22;58882;52.170;5.386;2023-08-30T10:42:30;23.70;49.10
70807;DHT22;58882;52.170;5.386;2023-08-30T10:45:05;24.10;48.40
70807;DHT22;58882;52.170;5.386;2023-08-30T10:47:36;24.40;47.70
70807;DHT22;58882;52.170;5.386;2023-08-30T10:50:07;24.80;47.00
70807;DHT22;58882;52.170;5.386;2023-08-30T10:52:34;25.10;46.50
70807;DHT22;58882;52.170;5.386;2023-08-30T10:55:08;25.30;46.00
70807;DHT22;58882;52.170;5.386;2023-08-30T10:57:36;25.60;45.50
70807;DHT22;58882;52.170;5.386;2023-08-30T11:02:36;26.00;44.30
70807;DHT22;58882;52.170;5.386;2023-08-30T11:05:06;26.20;43.90
70807;DHT22;58882;52.170;5.386;2023-08-30T11:07:33;26.40;43.40
70807;DHT22;58882;52.170;5.386;2023-08-30T11:10:00;26.50;43.00
70807;DHT22;58882;52.170;5.386;2023-08-30T11:12:27;26.50;42.80
70807;DHT22;58882;52.170;5.386;2023-08-30T11:14:56;26.40;42.10
70807;DHT22;58882;52.170;5.386;2023-08-30T11:17:26;26.30;42.20
70807;DHT22;58882;52.170;5.386;2023-08-30T11:22:41;26.10;42.30
70807;DHT22;58882;52.170;5.386;2023-08-30T11:25:10;26.00;42.50
70807;DHT22;58882;52.170;5.386;2023-08-30T11:27:37;26.00;43.60
70807;DHT22;58882;52.170;5.386;2023-08-30T11:30:07;26.00;42.90
70807;DHT22;58882;52.170;5.386;2023-08-30T11:32:39;26.00;42.70
70807;DHT22;58882;52.170;5.386;2023-08-30T11:35:06;26.10;42.30
70807;DHT22;58882;52.170;5.386;2023-08-30T11:37:34;26.20;42.10
70807;DHT22;58882;52.170;5.386;2023-08-30T11:40:02;26.20;41.90
70807;DHT22;58882;52.170;5.386;2023-08-30T11:42:30;26.00;41.70
70807;DHT22;58882;52.170;5.386;2023-08-30T11:44:58;26.00;41.90
70807;DHT22;58882;52.170;5.386;2023-08-30T11:47:26;25.90;42.30
70807;DHT22;58882;52.170;5.386;2023-08-30T11:49:55;25.90;42.30
70807;DHT22;58882;52.170;5.386;2023-08-30T11:52:23;26.00;42.10
70807;DHT22;58882;52.170;5.386;2023-08-30T11:54:50;26.10;42.00
70807;DHT22;58882;52.170;5.386;2023-08-30T11:57:17;26.20;41.80
70807;DHT22;58882;52.170;5.386;2023-08-30T11:59:45;26.20;41.80
70807;DHT22;58882;52.170;5.386;2023-08-30T12:02:12;26.20;41.80
70807;DHT22;58882;52.170;5.386;2023-08-30T12:04:41;26.20;41.70
70807;DHT22;58882;52.170;5.386;2023-08-30T12:07:08;26.20;41.80
70807;DHT22;58882;52.170;5.386;2023-08-30T12:09:35;26.30;41.80
70807;DHT22;58882;52.170;5.386;2023-08-30T12:12:10;26.40;41.40
70807;DHT22;58882;52.170;5.386;2023-08-30T12:14:37;26.30;41.20
70807;DHT22;58882;52.170;5.386;2023-08-30T12:17:05;26.40;40.80
70807;DHT22;58882;52.170;5.386;2023-08-30T12:19:32;26.30;40.90
70807;DHT22;58882;52.170;5.386;2023-08-30T12:22:06;26.30;40.80
70807;DHT22;58882;52.170;5.386;2023-08-30T12:24:41;26.30;40.70
70807;DHT22;58882;52.170;5.386;2023-08-30T12:27:08;26.30;40.10
70807;DHT22;58882;52.170;5.386;2023-08-30T12:29:35;26.30;40.00
70807;DHT22;58882;52.170;5.386;2023-08-30T12:32:03;26.30;40.30
70807;DHT22;58882;52.170;5.386;2023-08-30T12:34:29;26.30;40.40
70807;DHT22;58882;52.170;5.386;2023-08-30T12:36:56;26.30;40.40
70807;DHT22;58882;52.170;5.386;2023-08-30T12:39:23;26.40;40.30
70807;DHT22;58882;52.170;5.386;2023-08-30T12:41:50;26.40;40.10
70807;DHT22;58882;52.170;5.386;2023-08-30T12:44:17;26.50;39.90
70807;DHT22;58882;52.170;5.386;2023-08-30T12:46:44;26.60;39.40
70807;DHT22;58882;52.170;5.386;2023-08-30T12:49:11;26.50;39.00
70807;DHT22;58882;52.170;5.386;2023-08-30T12:51:37;26.50;38.60
70807;DHT22;58882;52.170;5.386;2023-08-30T12:54:04;26.50;38.50
70807;DHT22;58882;52.170;5.386;2023-08-30T12:56:31;26.50;38.80
70807;DHT22;58882;52.170;5.386;2023-08-30T12:58:58;26.50;39.00
70807;DHT22;58882;52.170;5.386;2023-08-30T13:01:25;26.50;38.70
70807;DHT22;58882;52.170;5.386;2023-08-30T13:03:52;26.50;38.30
70807;DHT22;58882;52.170;5.386;2023-08-30T13:06:19;26.40;38.10
70807;DHT22;58882;52.170;5.386;2023-08-30T13:08:45;26.40;39.00
70807;DHT22;58882;52.170;5.386;2023-08-30T13:11:12;26.40;37.90
70807;DHT22;58882;52.170;5.386;2023-08-30T13:13:39;26.40;38.10
70807;DHT22;58882;52.170;5.386;2023-08-30T13:16:06;26.40;38.10
70807;DHT22;58882;52.170;5.386;2023-08-30T13:18:33;26.40;37.60
70807;DHT22;58882;52.170;5.386;2023-08-30T13:20:59;26.40;37.60
70807;DHT22;58882;52.170;5.386;2023-08-30T13:23:26;26.40;37.50
70807;DHT22;58882;52.170;5.386;2023-08-30T13:25:53;26.30;37.80
70807;DHT22;58882;52.170;5.386;2023-08-30T13:28:20;26.30;37.60
70807;DHT22;58882;52.170;5.386;2023-08-30T13:30:47;26.30;37.50
70807;DHT22;58882;52.170;5.386;2023-08-30T13:33:16;26.30;37.40
70807;DHT22;58882;52.170;5.386;2023-08-30T13:35:42;26.30;37.20
70807;DHT22;58882;52.170;5.386;2023-08-30T13:38:09;26.20;37.20
70807;DHT22;58882;52.170;5.386;2023-08-30T13:40:36;26.10;37.20
70807;DHT22;58882;52.170;5.386;2023-08-30T13:43:03;26.00;37.40
70807;DHT22;58882;52.170;5.386;2023-08-30T13:45:30;25.90;37.70
70807;DHT22;58882;52.170;5.386;2023-08-30T13:47:57;25.90;38.00
70807;DHT22;58882;52.170;5.386;2023-08-30T13:50:24;25.90;38.00
70807;DHT22;58882;52.170;5.386;2023-08-30T13:52:50;25.90;37.80
70807;DHT22;58882;52.170;5.386;2023-08-30T13:55:17;25.90;37.90
70807;DHT22;58882;52.170;5.386;2023-08-30T13:57:44;25.90;38.00
70807;DHT22;58882;52.170;5.386;2023-08-30T14:00:11;25.90;38.10
70807;DHT22;58882;52.170;5.386;2023-08-30T14:02:39;25.80;38.30
70807;DHT22;58882;52.170;5.386;2023-08-30T14:05:06;25.80;38.50
70807;DHT22;58882;52.170;5.386;2023-08-30T14:07:34;25.70;38.60
70807;DHT22;58882;52.170;5.386;2023-08-30T14:10:01;25.60;38.90
70807;DHT22;58882;52.170;5.386;2023-08-30T14:12:28;25.50;38.90
70807;DHT22;58882;52.170;5.386;2023-08-30T14:14:54;25.40;39.10
70807;DHT22;58882;52.170;5.386;2023-08-30T14:17:21;25.40;39.20
70807;DHT22;58882;52.170;5.386;2023-08-30T14:19:50;25.30;39.20
70807;DHT22;58882;52.170;5.386;2023-08-30T14:22:17;25.30;39.50
70807;DHT22;58882;52.170;5.386;2023-08-30T14:24:46;25.20;39.60
70807;DHT22;58882;52.170;5.386;2023-08-30T14:27:33;25.20;39.70
70807;DHT22;58882;52.170;5.386;2023-08-30T14:29:59;25.10;40.00
70807;DHT22;58882;52.170;5.386;2023-08-30T14:32:27;25.10;40.30
70807;DHT22;58882;52.170;5.386;2023-08-30T14:34:54;25.10;40.40
70807;DHT22;58882;52.170;5.386;2023-08-30T14:37:20;25.10;40.50
70807;DHT22;58882;52.170;5.386;2023-08-30T14:39:47;25.10;40.60
70807;DHT22;58882;52.170;5.386;2023-08-30T14:42:14;25.10;40.70
70807;DHT22;58882;52.170;5.386;2023-08-30T14:44:41;25.00;40.90
70807;DHT22;58882;52.170;5.386;2023-08-30T14:47:08;25.00;41.00
70807;DHT22;58882;52.170;5.386;2023-08-30T14:49:35;24.90;41.40
70807;DHT22;58882;52.170;5.386;2023-08-30T14:52:02;24.80;41.80
70807;DHT22;58882;52.170;5.386;2023-08-30T14:54:29;24.70;41.90
70807;DHT22;58882;52.170;5.386;2023-08-30T14:56:56;24.70;42.00
70807;DHT22;58882;52.170;5.386;2023-08-30T14:59:23;24.60;42.20
70807;DHT22;58882;52.170;5.386;2023-08-30T15:01:50;24.60;42.20
70807;DHT22;58882;52.170;5.386;2023-08-30T15:04:17;24.70;42.10
70807;DHT22;58882;52.170;5.386;2023-08-30T15:06:43;24.70;42.10
70807;DHT22;58882;52.170;5.386;2023-08-30T15:09:10;24.70;42.10
70807;DHT22;58882;52.170;5.386;2023-08-30T15:11:37;24.70;42.10
70807;DHT22;58882;52.170;5.386;2023-08-30T15:14:04;24.70;42.10
70807;DHT22;58882;52.170;5.386;2023-08-30T15:16:31;24.70;42.10
70807;DHT22;58882;52.170;5.386;2023-08-30T15:18:58;24.70;42.00
70807;DHT22;58882;52.170;5.386;2023-08-30T15:21:25;24.50;42.00
70807;DHT22;58882;52.170;5.386;2023-08-30T15:23:52;24.40;42.10
70807;DHT22;58882;52.170;5.386;2023-08-30T15:26:19;24.30;42.40
70807;DHT22;58882;52.170;5.386;2023-08-30T15:28:48;24.20;42.30
70807;DHT22;58882;52.170;5.386;2023-08-30T15:31:18;24.10;42.70
70807;DHT22;58882;52.170;5.386;2023-08-30T15:33:47;24.10;42.90
70807;DHT22;58882;52.170;5.386;2023-08-30T15:36:14;24.10;43.10
70807;DHT22;58882;52.170;5.386;2023-08-30T15:38:41;24.10;43.40
70807;DHT22;58882;52.170;5.386;2023-08-30T15:41:12;24.10;43.20
70807;DHT22;58882;52.170;5.386;2023-08-30T15:43:39;24.20;43.20
70807;DHT22;58882;52.170;5.386;2023-08-30T15:46:07;24.20;43.20